Time;durP1;ratioP1;P1;durP2;ratioP2;P2;SDS_P1;SDS_P2;PMS_P1;PMS_P2;Temp;Humidity;BMP_temperature;BMP_pressure;BME280_temperature;BME280_humidity;BME280_pressure;Samples;Min_cycle;Max_cycle;Signal;HPM_P1;HPM_P2
2023/09/06 00:02:00;;;;;;;6.75;2.13;;;;;;;;;;4886810;29;20036;-69
2023/09/06 00:04:26;;;;;;;6.57;1.92;;;;;;;;;;4903230;29;20028;-69
2023/09/06 00:06:52;;;;;;;6.47;1.95;;;;;;;;;;4885827;29;20024;-69
2023/09/06 00:09:19;;;;;;;7.95;2.15;;;;;;;;;;4886534;29;20477;-69
2023/09/06 00:11:45;;;;;;;10.32;2.45;;;;;;;;;;4903445;29;20506;-69
2023/09/06 00:14:12;;;;;;;8.60;2.53;;;;;;;;;;4903277;29;20054;-69
2023/09/06 00:16:38;;;;;;;8.75;2.60;;;;;;;;;;4903607;29;20033;-69
2023/09/06 00:19:04;;;;;;;7.97;2.63;;;;;;;;;;4903254;29;20032;-69
2023/09/06 00:21:32;;;;;;;6.72;2.70;;;;;;;;;;4903186;29;20025;-69
2023/09/06 00:23:58;;;;;;;12.18;2.92;;;;;;;;;;4902925;29;20040;-68
2023/09/06 00:26:26;;;;;;;9.75;2.95;;;;;;;;;;4903277;29;20032;-68
2023/09/06 00:28:52;;;;;;;15.38;2.83;;;;;;;;;;4903252;29;20116;-68
2023/09/06 00:31:18;;;;;;;6.90;2.58;;;;;;;;;;4886281;29;20104;-69
2023/09/06 00:33:45;;;;;;;7.68;2.45;;;;;;;;;;4902804;29;20041;-69
2023/09/06 00:36:11;;;;;;;7.72;2.38;;;;;;;;;;4902928;29;20029;-68
2023/09/06 00:38:38;;;;;;;8.98;2.30;;;;;;;;;;4902843;29;20028;-68
2023/09/06 00:41:04;;;;;;;7.43;2.58;;;;;;;;;;4904491;29;20072;-68
2023/09/06 00:43:30;;;;;;;7.68;2.42;;;;;;;;;;4902663;29;20037;-68
2023/09/06 00:45:57;;;;;;;6.53;2.00;;;;;;;;;;4902895;29;20028;-68
2023/09/06 00:48:25;;;;;;;8.20;2.30;;;;;;;;;;4886986;29;20036;-68
2023/09/06 00:50:53;;;;;;;6.88;2.05;;;;;;;;;;4885791;29;20032;-68
2023/09/06 00:53:21;;;;;;;8.18;2.20;;;;;;;;;;4902734;29;20025;-69
2023/09/06 00:55:48;;;;;;;7.47;1.98;;;;;;;;;;4913103;29;20517;-69
2023/09/06 00:58:15;;;;;;;7.95;2.70;;;;;;;;;;4890501;29;20437;-69
2023/09/06 01:00:42;;;;;;;8.52;2.60;;;;;;;;;;4905366;29;20024;-69
2023/09/06 01:03:08;;;;;;;6.65;2.10;;;;;;;;;;4902610;29;20028;-69
2023/09/06 01:05:40;;;;;;;7.20;2.45;;;;;;;;;;4902192;29;20562;-69
2023/09/06 01:08:07;;;;;;;7.13;2.35;;;;;;;;;;4902621;29;20031;-69
2023/09/06 01:10:36;;;;;;;7.45;2.20;;;;;;;;;;4902194;29;20021;-69
2023/09/06 01:13:02;;;;;;;8.68;2.40;;;;;;;;;;4902200;29;20532;-69
2023/09/06 01:15:28;;;;;;;7.25;2.20;;;;;;;;;;4902281;29;20068;-69
2023/09/06 01:17:55;;;;;;;7.20;2.33;;;;;;;;;;4902077;29;20115;-69
2023/09/06 01:20:23;;;;;;;11.48;2.50;;;;;;;;;;4902110;29;20029;-69
2023/09/06 01:23:13;;;;;;;6.38;2.25;;;;;;;;;;4885473;29;20032;-69
2023/09/06 01:25:39;;;;;;;6.70;2.30;;;;;;;;;;4894366;29;20045;-69
2023/09/06 01:28:06;;;;;;;7.18;2.15;;;;;;;;;;4902281;29;20062;-69
2023/09/06 01:30:32;;;;;;;8.50;2.80;;;;;;;;;;4902049;29;20040;-69
2023/09/06 01:32:58;;;;;;;11.95;2.38;;;;;;;;;;4902259;29;20435;-70
2023/09/06 01:35:24;;;;;;;7.93;2.40;;;;;;;;;;4901709;29;20550;-69
2023/09/06 01:37:50;;;;;;;8.60;2.38;;;;;;;;;;4902232;29;20096;-69
2023/09/06 01:40:20;;;;;;;9.30;2.70;;;;;;;;;;4886355;29;20029;-69
2023/09/06 01:42:46;;;;;;;6.50;2.60;;;;;;;;;;4902212;29;20036;-69
2023/09/06 01:45:17;;;;;;;10.38;2.55;;;;;;;;;;4901878;29;20071;-68
2023/09/06 01:47:43;;;;;;;6.82;2.30;;;;;;;;;;4903549;29;20052;-69
2023/09/06 01:50:09;;;;;;;6.10;2.22;;;;;;;;;;4901885;29;20024;-69
2023/09/06 01:52:36;;;;;;;7.25;2.30;;;;;;;;;;4901836;29;20116;-69
2023/09/06 01:55:04;;;;;;;6.68;2.05;;;;;;;;;;4901999;29;20025;-69
2023/09/06 01:57:30;;;;;;;7.28;2.30;;;;;;;;;;4901901;29;20028;-69
2023/09/06 01:59:56;;;;;;;9.32;2.88;;;;;;;;;;4885053;29;20052;-69
2023/09/06 02:02:23;;;;;;;6.82;1.85;;;;;;;;;;4884983;29;20033;-69
2023/09/06 02:04:49;;;;;;;7.20;2.30;;;;;;;;;;4901736;29;20074;-69
2023/09/06 02:07:15;;;;;;;7.03;2.10;;;;;;;;;;4901740;29;20025;-69
2023/09/06 02:09:41;;;;;;;7.57;1.85;;;;;;;;;;4901866;29;20479;-69
2023/09/06 02:12:08;;;;;;;7.95;2.42;;;;;;;;;;4901832;29;20055;-69
2023/09/06 02:14:34;;;;;;;7.15;2.28;;;;;;;;;;4901792;29;20059;-69
2023/09/06 02:17:00;;;;;;;7.53;1.95;;;;;;;;;;4884875;29;20029;-68
2023/09/06 02:19:26;;;;;;;7.22;2.50;;;;;;;;;;4901623;29;20032;-68
2023/09/06 02:21:52;;;;;;;6.82;2.80;;;;;;;;;;4901673;29;20036;-68
2023/09/06 02:24:19;;;;;;;5.28;2.15;;;;;;;;;;4901536;29;20024;-68
2023/09/06 02:26:45;;;;;;;6.60;2.00;;;;;;;;;;4901641;29;20461;-68
2023/09/06 02:29:11;;;;;;;10.05;2.20;;;;;;;;;;4885478;29;20084;-68
2023/09/06 02:31:38;;;;;;;8.70;2.35;;;;;;;;;;4905275;29;20052;-68
2023/09/06 02:34:04;;;;;;;8.82;2.28;;;;;;;;;;4905467;29;20040;-68
2023/09/06 02:36:31;;;;;;;9.65;2.65;;;;;;;;;;4905058;29;20552;-67
2023/09/06 02:39:01;;;;;;;6.05;2.13;;;;;;;;;;4905209;29;20025;-68
2023/09/06 02:41:27;;;;;;;7.03;2.30;;;;;;;;;;4906528;29;20025;-68
2023/09/06 02:43:53;;;;;;;5.45;1.70;;;;;;;;;;4905121;29;20871;-68
2023/09/06 02:46:19;;;;;;;6.85;2.05;;;;;;;;;;4888063;29;20375;-68
2023/09/06 02:48:46;;;;;;;8.32;2.60;;;;;;;;;;4906664;29;20029;-68
2023/09/06 02:51:15;;;;;;;6.30;2.28;;;;;;;;;;4904687;29;20063;-67
2023/09/06 02:53:45;;;;;;;5.72;2.00;;;;;;;;;;4904986;29;20067;-68
2023/09/06 02:56:13;;;;;;;7.00;2.22;;;;;;;;;;4904679;29;21532;-68
2023/09/06 02:58:41;;;;;;;5.78;1.95;;;;;;;;;;4904953;29;20485;-67
2023/09/06 03:01:07;;;;;;;6.68;1.85;;;;;;;;;;4887758;29;20040;-69
2023/09/06 03:03:34;;;;;;;7.50;1.98;;;;;;;;;;4887731;29;20052;-69
2023/09/06 03:06:04;;;;;;;6.28;2.10;;;;;;;;;;4904431;29;20020;-69
2023/09/06 03:08:30;;;;;;;5.38;2.00;;;;;;;;;;4905118;29;20021;-69
2023/09/06 03:10:56;;;;;;;4.63;2.13;;;;;;;;;;4904249;29;20024;-70
2023/09/06 03:13:22;;;;;;;5.55;2.00;;;;;;;;;;4904705;29;20037;-69
2023/09/06 03:15:51;;;;;;;8.38;2.25;;;;;;;;;;4904400;29;20509;-69
2023/09/06 03:18:18;;;;;;;4.70;2.00;;;;;;;;;;4904485;29;20025;-69
2023/09/06 03:20:45;;;;;;;8.63;2.58;;;;;;;;;;4904029;29;20767;-68
2023/09/06 03:23:18;;;;;;;6.80;2.03;;;;;;;;;;4904463;29;20032;-68
2023/09/06 03:25:44;;;;;;;;;;;;;;;;;;4904498;29;20028;-68
2023/09/06 03:28:10;;;;;;;7.47;2.00;;;;;;;;;;4904479;29;20054;-68
2023/09/06 03:30:38;;;;;;;6.45;2.10;;;;;;;;;;4887330;29;20024;-68
2023/09/06 03:33:05;;;;;;;3.92;1.65;;;;;;;;;;4887342;29;20402;-69
2023/09/06 03:35:31;;;;;;;7.30;2.08;;;;;;;;;;4904078;29;20025;-68
2023/09/06 03:37:58;;;;;;;6.68;2.20;;;;;;;;;;4904127;29;20035;-68
2023/09/06 03:40:37;;;;;;;5.05;2.08;;;;;;;;;;4905517;29;20024;-69
2023/09/06 03:43:16;;;;;;;7.85;2.10;;;;;;;;;;4904045;29;20020;-69
2023/09/06 03:45:55;;;;;;;9.50;2.40;;;;;;;;;;4904097;29;20033;-68
2023/09/06 03:48:23;;;;;;;7.40;2.20;;;;;;;;;;4905225;29;20045;-69
2023/09/06 03:50:53;;;;;;;4.88;2.15;;;;;;;;;;4903719;29;20025;-68
2023/09/06 03:53:19;;;;;;;6.03;2.10;;;;;;;;;;4903687;29;20021;-68
2023/09/06 03:55:46;;;;;;;5.55;2.20;;;;;;;;;;4903497;29;20039;-68
2023/09/06 03:58:12;;;;;;;7.40;2.03;;;;;;;;;;4886951;29;20490;-68
2023/09/06 04:00:39;;;;;;;6.00;2.00;;;;;;;;;;4903622;29;20040;-68
2023/09/06 04:03:07;;;;;;;7.15;2.08;;;;;;;;;;4886510;29;20073;-68
2023/09/06 04:05:34;;;;;;;4.55;1.80;;;;;;;;;;4886255;29;20037;-68
2023/09/06 04:08:03;;;;;;;7.40;1.98;;;;;;;;;;4903568;29;20096;-68
2023/09/06 04:10:38;;;;;;;8.18;2.20;;;;;;;;;;4903291;29;20080;-68
2023/09/06 04:13:04;;;;;;;5.97;2.00;;;;;;;;;;4903726;29;20501;-68
2023/09/06 04:15:34;;;;;;;7.07;2.00;;;;;;;;;;4922167;29;20028;-68
2023/09/06 04:18:01;;;;;;;4.85;1.90;;;;;;;;;;4922437;29;20024;-69
2023/09/06 04:20:31;;;;;;;6.32;2.22;;;;;;;;;;4921737;29;20032;-69
2023/09/06 04:22:57;;;;;;;5.95;1.85;;;;;;;;;;4922335;29;20042;-69
2023/09/06 04:25:25;;;;;;;5.57;2.10;;;;;;;;;;4904735;29;20063;-69
2023/09/06 04:27:54;;;;;;;6.53;2.45;;;;;;;;;;4905084;29;20029;-69
2023/09/06 04:30:20;;;;;;;8.13;2.00;;;;;;;;;;4921983;29;20020;-69
2023/09/06 04:32:46;;;;;;;5.30;2.28;;;;;;;;;;4922170;29;20544;-69
2023/09/06 04:35:15;;;;;;;7.63;2.08;;;;;;;;;;4921599;29;20023;-68
2023/09/06 04:37:42;;;;;;;5.40;2.00;;;;;;;;;;4921993;29;20111;-69
2023/09/06 04:40:11;;;;;;;5.60;2.20;;;;;;;;;;4922909;29;20025;-69
2023/09/06 04:42:39;;;;;;;7.72;2.17;;;;;;;;;;4921858;29;20063;-69
2023/09/06 04:45:05;;;;;;;6.00;2.22;;;;;;;;;;4921561;29;20032;-69
2023/09/06 04:47:31;;;;;;;9.63;2.33;;;;;;;;;;4904974;29;20052;-69
2023/09/06 04:49:58;;;;;;;6.47;2.13;;;;;;;;;;4921685;29;20095;-69
2023/09/06 04:52:24;;;;;;;7.90;2.10;;;;;;;;;;4921227;29;20397;-69
2023/09/06 04:54:52;;;;;;;9.18;2.30;;;;;;;;;;4904413;29;20039;-69
2023/09/06 04:57:18;;;;;;;9.50;2.42;;;;;;;;;;4921429;29;20036;-69
2023/09/06 04:59:44;;;;;;;6.15;2.40;;;;;;;;;;4921677;29;20552;-70
2023/09/06 05:02:10;;;;;;;5.10;1.90;;;;;;;;;;4904270;29;20119;-69
2023/09/06 05:04:36;;;;;;;6.13;2.08;;;;;;;;;;4921265;29;20035;-69
2023/09/06 05:07:05;;;;;;;5.30;2.00;;;;;;;;;;4921316;29;20036;-70
2023/09/06 05:09:31;;;;;;;7.93;2.45;;;;;;;;;;4921559;29;20028;-68
2023/09/06 05:11:57;;;;;;;7.43;2.30;;;;;;;;;;4912371;29;20052;-68
2023/09/06 05:14:23;;;;;;;5.57;2.08;;;;;;;;;;4885503;29;20023;-68
2023/09/06 05:16:49;;;;;;;5.35;2.05;;;;;;;;;;4885429;29;20029;-68
2023/09/06 05:19:15;;;;;;;5.70;2.00;;;;;;;;;;4902095;29;20099;-68
2023/09/06 05:21:41;;;;;;;5.07;1.92;;;;;;;;;;4885361;29;20059;-68
2023/09/06 05:24:07;;;;;;;7.05;2.22;;;;;;;;;;4900382;29;20037;-68
2023/09/06 05:26:33;;;;;;;11.18;2.13;;;;;;;;;;4896996;29;20028;-68
2023/09/06 05:28:59;;;;;;;6.40;2.47;;;;;;;;;;4902221;29;20037;-68
2023/09/06 05:31:25;;;;;;;5.88;2.10;;;;;;;;;;4902084;29;20055;-69
2023/09/06 05:33:51;;;;;;;6.72;2.33;;;;;;;;;;4885374;29;20071;-68
2023/09/06 05:36:17;;;;;;;5.85;2.35;;;;;;;;;;4901959;29;20028;-68
2023/09/06 05:38:43;;;;;;;6.85;2.00;;;;;;;;;;4901928;29;20032;-68
2023/09/06 05:41:10;;;;;;;6.65;2.45;;;;;;;;;;4903327;29;20028;-68
2023/09/06 05:43:36;;;;;;;5.43;2.10;;;;;;;;;;4901873;29;20088;-68
2023/09/06 05:46:02;;;;;;;9.45;2.60;;;;;;;;;;4901808;29;20021;-69
2023/09/06 05:48:28;;;;;;;8.45;2.33;;;;;;;;;;4903281;29;20035;-69
2023/09/06 05:50:54;;;;;;;6.50;2.72;;;;;;;;;;4903789;29;20035;-68
2023/09/06 05:53:22;;;;;;;8.32;2.67;;;;;;;;;;4885236;29;20063;-68
2023/09/06 05:55:48;;;;;;;8.15;2.47;;;;;;;;;;4903659;29;20021;-68
2023/09/06 05:58:14;;;;;;;5.95;2.17;;;;;;;;;;4901904;29;20119;-68
2023/09/06 06:00:41;;;;;;;8.40;2.30;;;;;;;;;;4901711;29;20028;-68
2023/09/06 06:03:08;;;;;;;9.55;2.53;;;;;;;;;;4894261;29;20054;-68
2023/09/06 06:05:34;;;;;;;5.53;2.15;;;;;;;;;;4920353;29;20034;-67
2023/09/06 06:08:00;;;;;;;7.05;2.30;;;;;;;;;;4905760;29;20453;-70
2023/09/06 06:10:30;;;;;;;6.95;2.13;;;;;;;;;;4890832;29;20024;-70
2023/09/06 06:12:56;;;;;;;7.15;2.20;;;;;;;;;;4931911;29;20048;-70
2023/09/06 06:15:22;;;;;;;4.85;2.45;;;;;;;;;;4932424;29;20035;-70
2023/09/06 06:17:48;;;;;;;9.15;2.63;;;;;;;;;;4932410;29;20020;-70
2023/09/06 06:20:17;;;;;;;6.53;2.63;;;;;;;;;;4925652;29;20031;-69
2023/09/06 06:22:43;;;;;;;5.05;2.33;;;;;;;;;;4924196;29;20043;-67
2023/09/06 06:25:10;;;;;;;6.55;2.28;;;;;;;;;;4923761;29;20028;-66
2023/09/06 06:27:39;;;;;;;6.72;2.25;;;;;;;;;;4931100;29;20059;-67
2023/09/06 06:30:06;;;;;;;6.68;2.30;;;;;;;;;;4928995;29;20038;-66
2023/09/06 06:32:33;;;;;;;6.13;2.40;;;;;;;;;;4908213;29;20046;-66
2023/09/06 06:35:01;;;;;;;6.20;2.03;;;;;;;;;;4922140;29;20115;-66
2023/09/06 06:37:28;;;;;;;8.27;2.13;;;;;;;;;;4926006;29;20374;-68
2023/09/06 06:39:54;;;;;;;6.85;2.13;;;;;;;;;;4921532;29;20074;-66
2023/09/06 06:42:20;;;;;;;8.32;2.42;;;;;;;;;;4931641;29;20067;-66
2023/09/06 06:44:47;;;;;;;5.78;2.30;;;;;;;;;;4927211;29;20084;-66
2023/09/06 06:47:13;;;;;;;6.35;2.22;;;;;;;;;;4922610;29;20107;-66
2023/09/06 06:49:39;;;;;;;7.97;2.40;;;;;;;;;;4923782;29;20115;-65
2023/09/06 06:52:05;;;;;;;7.03;2.80;;;;;;;;;;4924431;29;20031;-66
2023/09/06 06:54:32;;;;;;;9.77;2.50;;;;;;;;;;4933455;29;20024;-66
2023/09/06 06:56:58;;;;;;;8.30;2.60;;;;;;;;;;4940760;29;20038;-66
2023/09/06 06:59:24;;;;;;;6.70;2.50;;;;;;;;;;4929823;29;20055;-66
2023/09/06 07:01:50;;;;;;;5.00;2.30;;;;;;;;;;4926248;29;20386;-66
2023/09/06 07:04:16;;;;;;;9.93;2.67;;;;;;;;;;4921863;29;20036;-66
2023/09/06 07:06:42;;;;;;;9.85;2.63;;;;;;;;;;4922221;29;20031;-66
2023/09/06 07:09:08;;;;;;;5.95;2.70;;;;;;;;;;4923347;29;20475;-66
2023/09/06 07:11:35;;;;;;;9.23;2.70;;;;;;;;;;4920590;29;20506;-65
2023/09/06 07:14:02;;;;;;;7.38;2.47;;;;;;;;;;4921587;29;20038;-64
2023/09/06 07:16:28;;;;;;;6.45;2.65;;;;;;;;;;4922331;29;20424;-70
2023/09/06 07:18:54;;;;;;;7.78;2.78;;;;;;;;;;4916536;29;20052;-70
2023/09/06 07:21:20;;;;;;;10.10;2.83;;;;;;;;;;4901620;29;20052;-78
2023/09/06 07:23:46;;;;;;;7.03;2.65;;;;;;;;;;4892074;29;20119;-75
2023/09/06 07:26:12;;;;;;;8.90;2.40;;;;;;;;;;4904670;29;20052;-69
2023/09/06 07:28:39;;;;;;;5.30;2.13;;;;;;;;;;4919460;29;20486;-68
2023/09/06 07:31:05;;;;;;;9.07;2.63;;;;;;;;;;4909227;29;20060;-68
2023/09/06 07:33:31;;;;;;;8.52;2.30;;;;;;;;;;4902702;29;20100;-69
2023/09/06 07:35:58;;;;;;;10.18;2.60;;;;;;;;;;4902687;29;20028;-68
2023/09/06 07:38:24;;;;;;;10.85;3.05;;;;;;;;;;4899185;29;20108;-68
2023/09/06 07:40:57;;;;;;;11.30;2.83;;;;;;;;;;4901387;29;20557;-67
2023/09/06 07:43:23;;;;;;;9.10;3.00;;;;;;;;;;4896443;29;20024;-67
2023/09/06 07:45:49;;;;;;;7.90;2.70;;;;;;;;;;4913313;29;20035;-64
2023/09/06 07:48:15;;;;;;;11.27;2.60;;;;;;;;;;4918270;29;20033;-62
2023/09/06 07:50:41;;;;;;;7.72;2.80;;;;;;;;;;4904890;29;20039;-63
2023/09/06 07:53:07;;;;;;;12.63;2.80;;;;;;;;;;4903216;29;20024;-65
2023/09/06 07:55:33;;;;;;;12.80;2.50;;;;;;;;;;4903240;29;20446;-69
2023/09/06 07:57:59;;;;;;;9.05;2.40;;;;;;;;;;4903538;29;20024;-66
2023/09/06 08:00:26;;;;;;;8.65;2.28;;;;;;;;;;4903563;29;20036;-66
2023/09/06 08:02:54;;;;;;;7.20;2.10;;;;;;;;;;4904447;29;20032;-66
2023/09/06 08:05:20;;;;;;;4.72;1.95;;;;;;;;;;4904451;29;20390;-66
2023/09/06 08:07:46;;;;;;;14.10;2.80;;;;;;;;;;4907642;29;20033;-66
2023/09/06 08:10:13;;;;;;;10.82;2.58;;;;;;;;;;4903410;29;20028;-66
2023/09/06 08:12:39;;;;;;;7.93;2.55;;;;;;;;;;4903227;29;20521;-67
2023/09/06 08:15:07;;;;;;;10.48;2.60;;;;;;;;;;4907152;29;20060;-67
2023/09/06 08:17:33;;;;;;;9.50;2.88;;;;;;;;;;4913270;29;20027;-66
2023/09/06 08:19:59;;;;;;;7.85;2.05;;;;;;;;;;4910120;29;20064;-68
2023/09/06 08:22:25;;;;;;;9.13;2.30;;;;;;;;;;4905006;29;20108;-67
2023/09/06 08:24:51;;;;;;;10.15;2.45;;;;;;;;;;4910121;29;20032;-67
2023/09/06 08:27:17;;;;;;;9.88;2.47;;;;;;;;;;4902082;29;20020;-68
2023/09/06 08:29:43;;;;;;;10.35;2.58;;;;;;;;;;4902810;29;20021;-67
2023/09/06 08:32:09;;;;;;;7.22;2.72;;;;;;;;;;4886052;29;20106;-66
2023/09/06 08:34:35;;;;;;;6.32;2.25;;;;;;;;;;4902735;29;20132;-67
2023/09/06 08:37:01;;;;;;;10.05;3.15;;;;;;;;;;4902744;29;20035;-66
2023/09/06 08:39:27;;;;;;;9.85;3.13;;;;;;;;;;4903353;29;20031;-67
2023/09/06 08:41:56;;;;;;;5.70;2.30;;;;;;;;;;4886052;29;20067;-66
2023/09/06 08:44:23;;;;;;;10.75;2.78;;;;;;;;;;4904774;29;20084;-66
2023/09/06 08:46:49;;;;;;;7.22;2.47;;;;;;;;;;4902621;29;20021;-68
2023/09/06 08:49:15;;;;;;;12.18;2.88;;;;;;;;;;4903294;29;20032;-67
2023/09/06 08:51:42;;;;;;;;;;;;;;;;;;4903016;29;20025;-68
2023/09/06 08:54:08;;;;;;;8.25;1.88;;;;;;;;;;4902530;29;20368;-67
2023/09/06 08:56:34;;;;;;;;;;;;;;;;;;4887268;29;20039;-67
2023/09/06 08:59:00;;;;;;;12.18;2.33;;;;;;;;;;4915674;29;19907;-67
2023/09/06 09:01:27;;;;;;;4.65;1.70;;;;;;;;;;4904411;29;20096;-67
2023/09/06 09:03:53;;;;;;;7.85;2.00;;;;;;;;;;4921033;29;20032;-67
2023/09/06 09:06:20;;;;;;;10.45;2.30;;;;;;;;;;4921503;29;20025;-68
2023/09/06 09:08:46;;;;;;;4.85;1.52;;;;;;;;;;4904201;29;20036;-68
2023/09/06 09:11:13;;;;;;;4.70;1.70;;;;;;;;;;4921796;29;20047;-68
2023/09/06 09:13:40;;;;;;;6.18;1.77;;;;;;;;;;4940301;29;20031;-68
2023/09/06 09:16:07;;;;;;;5.43;1.75;;;;;;;;;;4932766;29;20512;-68
2023/09/06 09:18:34;;;;;;;4.47;1.63;;;;;;;;;;4921015;29;20031;-68
2023/09/06 09:21:03;;;;;;;6.65;1.80;;;;;;;;;;4921031;29;20030;-67
2023/09/06 09:23:29;;;;;;;3.90;1.88;;;;;;;;;;4920877;29;20032;-67
2023/09/06 09:25:55;;;;;;;5.43;1.60;;;;;;;;;;4903552;29;20024;-67
2023/09/06 09:28:21;;;;;;;3.92;1.52;;;;;;;;;;4920840;29;20101;-67
2023/09/06 09:30:47;;;;;;;5.57;1.83;;;;;;;;;;4923418;29;20028;-67
2023/09/06 09:33:13;;;;;;;4.03;1.35;;;;;;;;;;4903856;29;20028;-68
2023/09/06 09:35:40;;;;;;;5.25;1.45;;;;;;;;;;4903795;29;20028;-67
2023/09/06 09:38:10;;;;;;;4.47;1.42;;;;;;;;;;4920608;29;20036;-67
2023/09/06 09:40:37;;;;;;;3.92;1.50;;;;;;;;;;4922360;29;20028;-67
2023/09/06 09:43:07;;;;;;;4.95;1.77;;;;;;;;;;4920253;29;20036;-68
2023/09/06 09:45:40;;;;;;;6.05;1.88;;;;;;;;;;4920487;29;20656;-68
2023/09/06 09:48:07;;;;;;;4.43;1.70;;;;;;;;;;4932642;29;20714;-68
2023/09/06 09:50:34;;;;;;;6.55;1.70;;;;;;;;;;4920560;29;20035;-68
2023/09/06 09:53:00;;;;;;;3.55;1.35;;;;;;;;;;4920482;29;20512;-67
2023/09/06 09:55:31;;;;;;;10.23;1.70;;;;;;;;;;4920602;29;20036;-68
2023/09/06 09:57:58;;;;;;;5.97;1.63;;;;;;;;;;4920478;29;20036;-67
2023/09/06 10:00:28;;;;;;;4.70;2.00;;;;;;;;;;4920707;29;20389;-67
2023/09/06 10:03:00;;;;;;;4.57;1.88;;;;;;;;;;4919991;29;20024;-67
2023/09/06 10:05:26;;;;;;;4.43;1.45;;;;;;;;;;4931982;29;20035;-67
2023/09/06 10:07:55;;;;;;;6.30;2.13;;;;;;;;;;4920062;29;20039;-67
2023/09/06 10:10:21;;;;;;;4.05;1.70;;;;;;;;;;4932681;29;20047;-66
2023/09/06 10:12:49;;;;;;;4.88;1.60;;;;;;;;;;4938780;29;20166;-65
2023/09/06 10:15:19;;;;;;;6.07;1.75;;;;;;;;;;4938917;29;20047;-65
2023/09/06 10:17:46;;;;;;;3.88;1.67;;;;;;;;;;4939365;29;20446;-66
2023/09/06 10:20:12;;;;;;;5.15;1.73;;;;;;;;;;4924249;29;20032;-66
2023/09/06 10:22:43;;;;;;;3.10;1.50;;;;;;;;;;4919913;29;20032;-67
2023/09/06 10:25:10;;;;;;;5.38;1.65;;;;;;;;;;4919417;29;20390;-67
2023/09/06 10:27:44;;;;;;;4.88;1.42;;;;;;;;;;4902600;29;20035;-67
2023/09/06 10:30:17;;;;;;;4.78;1.30;;;;;;;;;;4924731;29;20023;-68
2023/09/06 10:32:43;;;;;;;6.07;1.70;;;;;;;;;;4928185;29;20027;-66
2023/09/06 10:35:22;;;;;;;2.45;1.17;;;;;;;;;;4928997;29;20496;-66
2023/09/06 10:38:07;;;;;;;5.72;1.50;;;;;;;;;;4924398;29;20035;-66
2023/09/06 10:40:51;;;;;;;4.55;1.58;;;;;;;;;;4927158;29;20323;-67
2023/09/06 10:43:23;;;;;;;7.25;1.55;;;;;;;;;;4906958;29;20123;-66
2023/09/06 10:46:08;;;;;;;4.63;1.40;;;;;;;;;;4919803;29;20434;-66
2023/09/06 10:48:34;;;;;;;4.85;1.40;;;;;;;;;;4920946;29;20032;-66
2023/09/06 10:51:07;;;;;;;5.53;1.23;;;;;;;;;;4910409;29;20031;-71
2023/09/06 10:53:36;;;;;;;3.60;1.30;;;;;;;;;;4923258;29;20056;-67
2023/09/06 10:56:02;;;;;;;4.80;1.20;;;;;;;;;;4922272;29;20035;-68
2023/09/06 10:58:35;;;;;;;3.45;1.20;;;;;;;;;;4908243;29;20031;-67
2023/09/06 11:01:24;;;;;;;6.78;1.42;;;;;;;;;;4928940;29;20035;-67
2023/09/06 11:03:54;;;;;;;5.68;1.50;;;;;;;;;;4928498;29;20099;-68
2023/09/06 11:06:20;;;;;;;4.35;1.40;;;;;;;;;;4907611;29;20424;-68
2023/09/06 11:08:47;;;;;;;3.33;1.33;;;;;;;;;;4927923;29;20046;-67
2023/09/06 11:11:14;;;;;;;4.70;1.42;;;;;;;;;;4921358;29;20052;-67
2023/09/06 11:13:41;;;;;;;6.60;1.60;;;;;;;;;;4886197;29;20025;-69
2023/09/06 11:16:11;;;;;;;6.85;1.50;;;;;;;;;;4908021;29;20438;-70
2023/09/06 11:18:48;;;;;;;4.88;1.38;;;;;;;;;;4903776;29;20025;-70
2023/09/06 11:21:21;;;;;;;6.95;1.42;;;;;;;;;;4896451;29;20112;-70
2023/09/06 11:23:48;;;;;;;3.90;1.20;;;;;;;;;;4907042;29;20088;-69
2023/09/06 11:26:14;;;;;;;7.07;1.50;;;;;;;;;;4907408;29;20463;-69
2023/09/06 11:28:43;;;;;;;5.50;1.38;;;;;;;;;;4905950;29;20063;-68
2023/09/06 11:31:33;;;;;;;4.53;1.40;;;;;;;;;;4904079;29;20557;-69
2023/09/06 11:34:04;;;;;;;3.92;1.10;;;;;;;;;;4913313;29;20025;-69
2023/09/06 11:36:32;;;;;;;6.53;1.27;;;;;;;;;;4903844;29;20036;-69
2023/09/06 11:38:59;;;;;;;4.50;1.38;;;;;;;;;;4887037;29;20017;-69
2023/09/06 11:41:26;;;;;;;4.68;1.50;;;;;;;;;;4905408;29;20039;-67
2023/09/06 11:43:56;;;;;;;5.90;1.30;;;;;;;;;;4903596;29;20066;-68
2023/09/06 11:46:24;;;;;;;8.75;1.30;;;;;;;;;;4886864;29;20045;-69
2023/09/06 11:48:51;;;;;;;6.32;1.50;;;;;;;;;;4904956;29;20027;-69
2023/09/06 11:51:21;;;;;;;6.55;1.33;;;;;;;;;;4903823;29;20111;-69
2023/09/06 11:54:00;;;;;;;5.05;1.23;;;;;;;;;;4886593;29;20028;-69
2023/09/06 11:56:29;;;;;;;6.00;1.52;;;;;;;;;;4916146;29;20024;-69
2023/09/06 11:58:58;;;;;;;6.75;1.67;;;;;;;;;;4886195;29;20032;-67
2023/09/06 12:01:25;;;;;;;6.05;1.42;;;;;;;;;;4902571;29;20111;-69
2023/09/06 12:03:53;;;;;;;7.78;1.80;;;;;;;;;;4902650;29;20021;-69
2023/09/06 12:06:19;;;;;;;7.75;1.73;;;;;;;;;;4907272;29;20032;-73
2023/09/06 12:08:45;;;;;;;5.65;1.27;;;;;;;;;;4909186;29;20080;-76
2023/09/06 12:11:15;;;;;;;10.25;1.67;;;;;;;;;;4903230;29;20478;-76
2023/09/06 12:13:41;;;;;;;5.90;1.35;;;;;;;;;;4886430;29;20386;-76
2023/09/06 12:16:08;;;;;;;7.00;1.70;;;;;;;;;;4886308;29;20044;-76
2023/09/06 12:18:35;;;;;;;6.78;1.88;;;;;;;;;;4903038;29;20024;-75
2023/09/06 12:21:02;;;;;;;6.47;1.65;;;;;;;;;;4910959;29;20036;-77
2023/09/06 12:23:29;;;;;;;9.18;1.83;;;;;;;;;;4922116;29;20031;-75
2023/09/06 12:25:58;;;;;;;7.93;1.88;;;;;;;;;;4911880;29;20028;-75
2023/09/06 12:28:24;;;;;;;7.90;1.50;;;;;;;;;;4906845;29;20024;-76
2023/09/06 12:30:54;;;;;;;12.00;1.83;;;;;;;;;;4911445;29;20418;-76
2023/09/06 12:33:22;;;;;;;5.95;1.48;;;;;;;;;;4906301;29;20020;-72
2023/09/06 12:35:51;;;;;;;9.73;1.52;;;;;;;;;;4909986;29;20028;-71
2023/09/06 12:38:17;;;;;;;11.18;2.08;;;;;;;;;;4905519;29;20039;-72
2023/09/06 12:40:46;;;;;;;9.02;1.63;;;;;;;;;;4904213;29;20032;-75
2023/09/06 12:43:12;;;;;;;9.15;1.80;;;;;;;;;;4885808;29;20056;-73
2023/09/06 12:45:49;;;;;;;10.65;1.88;;;;;;;;;;4902633;29;20037;-89
2023/09/06 12:48:15;;;;;;;8.48;1.98;;;;;;;;;;4902845;29;20024;-79
2023/09/06 12:50:41;;;;;;;5.30;1.75;;;;;;;;;;4921218;29;20112;-78
2023/09/06 12:53:07;;;;;;;6.13;1.85;;;;;;;;;;4921573;29;20497;-83
2023/09/06 12:55:35;;;;;;;10.50;1.95;;;;;;;;;;4922151;29;20024;-77
2023/09/06 12:58:04;;;;;;;6.97;1.63;;;;;;;;;;4902790;29;20024;-74
2023/09/06 13:00:30;;;;;;;9.40;1.90;;;;;;;;;;4914013;29;20505;-85
2023/09/06 13:02:56;;;;;;;7.38;1.92;;;;;;;;;;4887159;29;20032;-80
2023/09/06 13:05:23;;;;;;;6.88;1.65;;;;;;;;;;4891536;29;20016;-79
2023/09/06 13:07:49;;;;;;;9.95;2.00;;;;;;;;;;4920868;29;20375;-74
2023/09/06 13:10:15;;;;;;;7.25;2.00;;;;;;;;;;4909545;29;20055;-74
2023/09/06 13:12:42;;;;;;;9.10;2.30;;;;;;;;;;4901555;29;20502;-74
2023/09/06 13:15:08;;;;;;;6.90;1.40;;;;;;;;;;4901903;29;20025;-70
2023/09/06 13:17:34;;;;;;;6.53;1.77;;;;;;;;;;4901804;29;20040;-72
2023/09/06 13:20:00;;;;;;;8.75;1.60;;;;;;;;;;4901514;29;20033;-70
2023/09/06 13:22:26;;;;;;;6.65;1.98;;;;;;;;;;4901788;29;20422;-71
2023/09/06 13:24:52;;;;;;;5.93;1.70;;;;;;;;;;4901977;29;20447;-74
2023/09/06 13:27:19;;;;;;;4.72;1.58;;;;;;;;;;4901996;29;20028;-73
2023/09/06 13:29:45;;;;;;;9.98;2.10;;;;;;;;;;4885070;29;20351;-73
2023/09/06 13:32:12;;;;;;;6.50;1.80;;;;;;;;;;4906242;29;20028;-72
2023/09/06 13:34:38;;;;;;;12.60;2.55;;;;;;;;;;4901586;29;20064;-74
2023/09/06 13:37:04;;;;;;;7.30;1.98;;;;;;;;;;4904534;29;20036;-74
2023/09/06 13:39:33;;;;;;;9.25;2.00;;;;;;;;;;4909702;29;20067;-73
2023/09/06 13:42:00;;;;;;;9.90;2.00;;;;;;;;;;4918363;29;20526;-73
2023/09/06 13:44:33;;;;;;;8.35;1.70;;;;;;;;;;4903563;29;20401;-70
2023/09/06 13:46:59;;;;;;;7.55;1.65;;;;;;;;;;4901920;29;20032;-71
2023/09/06 13:49:25;;;;;;;8.45;2.10;;;;;;;;;;4902892;29;20020;-72
2023/09/06 13:51:51;;;;;;;9.70;2.00;;;;;;;;;;4885196;29;20039;-70
2023/09/06 13:54:17;;;;;;;8.60;2.13;;;;;;;;;;4901773;29;20024;-74
2023/09/06 13:56:44;;;;;;;7.88;1.85;;;;;;;;;;4901919;29;20029;-73
2023/09/06 13:59:10;;;;;;;10.20;1.95;;;;;;;;;;4901689;29;20024;-73
2023/09/06 14:01:36;;;;;;;8.40;2.00;;;;;;;;;;4906165;29;20036;-72
2023/09/06 14:04:03;;;;;;;8.25;1.80;;;;;;;;;;4918946;29;20028;-71
2023/09/06 14:06:29;;;;;;;10.52;2.00;;;;;;;;;;4900795;29;20474;-71
2023/09/06 14:08:56;;;;;;;6.75;1.83;;;;;;;;;;4920473;29;20032;-71
2023/09/06 14:11:22;;;;;;;10.73;2.03;;;;;;;;;;4922316;29;20042;-71
2023/09/06 14:13:48;;;;;;;8.63;2.20;;;;;;;;;;4939558;29;20024;-71
2023/09/06 14:16:14;;;;;;;10.48;2.50;;;;;;;;;;4939533;29;20032;-72
2023/09/06 14:18:40;;;;;;;13.55;2.67;;;;;;;;;;4939118;29;20046;-70
2023/09/06 14:21:06;;;;;;;12.75;2.55;;;;;;;;;;4939664;29;20063;-69
2023/09/06 14:23:32;;;;;;;11.05;2.15;;;;;;;;;;4920106;29;20030;-69
2023/09/06 14:25:58;;;;;;;11.23;2.72;;;;;;;;;;4921981;29;20059;-70
2023/09/06 14:28:24;;;;;;;9.90;2.00;;;;;;;;;;4924230;29;20024;-69
2023/09/06 14:30:50;;;;;;;10.27;2.17;;;;;;;;;;4923996;29;20028;-72
2023/09/06 14:33:16;;;;;;;9.55;2.28;;;;;;;;;;4923559;29;20053;-71
2023/09/06 14:35:44;;;;;;;8.52;2.40;;;;;;;;;;4923266;29;20478;-70
2023/09/06 14:38:10;;;;;;;11.05;2.85;;;;;;;;;;4906020;29;20024;-71
2023/09/06 14:40:38;;;;;;;9.75;2.13;;;;;;;;;;4925101;29;20040;-71
2023/09/06 14:43:04;;;;;;;10.32;2.53;;;;;;;;;;4906666;29;20092;-69
2023/09/06 14:45:30;;;;;;;11.90;2.40;;;;;;;;;;4932093;29;20032;-71